ETIK

Illesheim Air Base Heliport

Storck Barracks, Germany
METAR ETIK 152156Z AUTO 00000KT 9999 CLR 14/10 A3015 RMK AO2 SLP203 T01400096 $
Observed Flight Rules
Aug-15 @ 21:56 UTC (30 minutes ago) Visual Flight Rules
Visibility Clouds
10,000+ meters
  • Clear skies
Temperatures Readings
Current 14°C / 57°F
Dewpoint 10°C / 50°F
Humidity 77%
Altimeter 30.15" Hg
Pressure 1020.3 hPa
Elevation 325
METAR ETIK 152156Z AUTO 00000KT 9999 CLR 14/10 A3015 RMK AO2 SLP203 T01400096 $
Observed Flight Rules
Aug-15 @ 21:56 UTC
(30 minutes ago)
VFR
Clouds
  • Clear skies
Temperature Dewpoint
14°C / 57°F 10°C / 50°F
Humidity Altimeter Pressure
77% 30.15" Hg 1020.3 hPa